sensor_id;sensor_type;location;lat;lon;timestamp;P1;durP1;ratioP1;P2;durP2;ratioP2
11037;SDS011;5572;49.540;11.932;2024-02-21T00:00:22;2.30;;;2.27;;
11037;SDS011;5572;49.540;11.932;2024-02-21T00:02:49;2.50;;;2.50;;
11037;SDS011;5572;49.540;11.932;2024-02-21T00:05:16;2.33;;;2.33;;
11037;SDS011;5572;49.540;11.932;2024-02-21T00:07:43;3.47;;;3.27;;
11037;SDS011;5572;49.540;11.932;2024-02-21T00:10:09;2.20;;;2.20;;
11037;SDS011;5572;49.540;11.932;2024-02-21T00:12:36;2.20;;;2.20;;
11037;SDS011;5572;49.540;11.932;2024-02-21T00:15:04;2.20;;;2.20;;
11037;SDS011;5572;49.540;11.932;2024-02-21T00:17:31;2.00;;;2.00;;
11037;SDS011;5572;49.540;11.932;2024-02-21T00:19:58;2.20;;;2.20;;
11037;SDS011;5572;49.540;11.932;2024-02-21T00:22:25;2.03;;;2.03;;
11037;SDS011;5572;49.540;11.932;2024-02-21T00:24:54;2.30;;;2.30;;
11037;SDS011;5572;49.540;11.932;2024-02-21T00:27:20;2.80;;;2.70;;
11037;SDS011;5572;49.540;11.932;2024-02-21T00:29:47;2.23;;;2.23;;
11037;SDS011;5572;49.540;11.932;2024-02-21T00:32:15;2.97;;;2.77;;
11037;SDS011;5572;49.540;11.932;2024-02-21T00:34:41;2.47;;;2.47;;
11037;SDS011;5572;49.540;11.932;2024-02-21T00:37:08;2.20;;;2.20;;
11037;SDS011;5572;49.540;11.932;2024-02-21T00:39:34;2.10;;;2.10;;
11037;SDS011;5572;49.540;11.932;2024-02-21T00:42:02;2.30;;;2.30;;
11037;SDS011;5572;49.540;11.932;2024-02-21T00:44:29;2.20;;;2.20;;
11037;SDS011;5572;49.540;11.932;2024-02-21T00:46:55;2.23;;;2.23;;
11037;SDS011;5572;49.540;11.932;2024-02-21T00:49:23;2.30;;;2.30;;
11037;SDS011;5572;49.540;11.932;2024-02-21T00:51:50;2.17;;;2.17;;
11037;SDS011;5572;49.540;11.932;2024-02-21T00:54:16;2.30;;;2.30;;
11037;SDS011;5572;49.540;11.932;2024-02-21T00:56:43;2.93;;;2.83;;
11037;SDS011;5572;49.540;11.932;2024-02-21T00:59:09;2.60;;;2.60;;
11037;SDS011;5572;49.540;11.932;2024-02-21T01:01:36;2.97;;;2.87;;
11037;SDS011;5572;49.540;11.932;2024-02-21T01:04:02;2.20;;;2.20;;
11037;SDS011;5572;49.540;11.932;2024-02-21T01:06:31;2.50;;;2.50;;
11037;SDS011;5572;49.540;11.932;2024-02-21T01:08:57;2.30;;;2.30;;
11037;SDS011;5572;49.540;11.932;2024-02-21T01:11:24;2.00;;;2.00;;
11037;SDS011;5572;49.540;11.932;2024-02-21T01:13:50;2.10;;;2.10;;
11037;SDS011;5572;49.540;11.932;2024-02-21T01:16:17;1.97;;;1.97;;
11037;SDS011;5572;49.540;11.932;2024-02-21T01:18:43;2.00;;;2.00;;
11037;SDS011;5572;49.540;11.932;2024-02-21T01:21:10;2.90;;;2.77;;
11037;SDS011;5572;49.540;11.932;2024-02-21T01:23:38;2.10;;;2.10;;
11037;SDS011;5572;49.540;11.932;2024-02-21T01:26:04;2.00;;;2.00;;
11037;SDS011;5572;49.540;11.932;2024-02-21T01:28:33;2.37;;;2.37;;
11037;SDS011;5572;49.540;11.932;2024-02-21T01:30:59;2.00;;;2.00;;
11037;SDS011;5572;49.540;11.932;2024-02-21T01:33:26;2.53;;;2.53;;
11037;SDS011;5572;49.540;11.932;2024-02-21T01:35:53;2.53;;;2.43;;
11037;SDS011;5572;49.540;11.932;2024-02-21T01:38:19;2.10;;;2.10;;
11037;SDS011;5572;49.540;11.932;2024-02-21T01:40:47;1.90;;;1.90;;
11037;SDS011;5572;49.540;11.932;2024-02-21T01:43:17;1.93;;;1.93;;
11037;SDS011;5572;49.540;11.932;2024-02-21T01:45:45;2.23;;;2.20;;
11037;SDS011;5572;49.540;11.932;2024-02-21T01:48:14;1.90;;;1.90;;
11037;SDS011;5572;49.540;11.932;2024-02-21T01:50:42;2.00;;;2.00;;
11037;SDS011;5572;49.540;11.932;2024-02-21T01:53:10;1.90;;;1.90;;
11037;SDS011;5572;49.540;11.932;2024-02-21T01:55:42;2.37;;;2.30;;
11037;SDS011;5572;49.540;11.932;2024-02-21T01:58:11;1.90;;;1.90;;
11037;SDS011;5572;49.540;11.932;2024-02-21T02:00:38;2.53;;;2.50;;
11037;SDS011;5572;49.540;11.932;2024-02-21T02:03:06;1.90;;;1.90;;
11037;SDS011;5572;49.540;11.932;2024-02-21T02:05:35;1.87;;;1.87;;
11037;SDS011;5572;49.540;11.932;2024-02-21T02:08:01;2.00;;;2.00;;
11037;SDS011;5572;49.540;11.932;2024-02-21T02:10:28;2.10;;;2.10;;
11037;SDS011;5572;49.540;11.932;2024-02-21T02:12:55;1.90;;;1.90;;
11037;SDS011;5572;49.540;11.932;2024-02-21T02:15:23;2.23;;;2.17;;
11037;SDS011;5572;49.540;11.932;2024-02-21T02:17:49;2.00;;;2.00;;
11037;SDS011;5572;49.540;11.932;2024-02-21T02:20:16;1.90;;;1.90;;
11037;SDS011;5572;49.540;11.932;2024-02-21T02:22:42;2.00;;;2.00;;
11037;SDS011;5572;49.540;11.932;2024-02-21T02:25:13;1.90;;;1.90;;
11037;SDS011;5572;49.540;11.932;2024-02-21T02:27:43;1.90;;;1.90;;
11037;SDS011;5572;49.540;11.932;2024-02-21T02:30:10;2.00;;;2.00;;
11037;SDS011;5572;49.540;11.932;2024-02-21T02:32:37;2.10;;;2.10;;
11037;SDS011;5572;49.540;11.932;2024-02-21T02:35:04;2.30;;;2.30;;
11037;SDS011;5572;49.540;11.932;2024-02-21T02:37:31;2.03;;;2.03;;
11037;SDS011;5572;49.540;11.932;2024-02-21T02:39:58;1.90;;;1.90;;
11037;SDS011;5572;49.540;11.932;2024-02-21T02:42:25;2.10;;;2.10;;
11037;SDS011;5572;49.540;11.932;2024-02-21T02:44:52;1.87;;;1.87;;
11037;SDS011;5572;49.540;11.932;2024-02-21T02:47:19;1.90;;;1.90;;
11037;SDS011;5572;49.540;11.932;2024-02-21T02:49:45;1.70;;;1.70;;
11037;SDS011;5572;49.540;11.932;2024-02-21T02:52:15;1.90;;;1.90;;
11037;SDS011;5572;49.540;11.932;2024-02-21T02:54:42;1.90;;;1.90;;
11037;SDS011;5572;49.540;11.932;2024-02-21T02:57:08;1.80;;;1.80;;
11037;SDS011;5572;49.540;11.932;2024-02-21T02:59:36;1.70;;;1.70;;
11037;SDS011;5572;49.540;11.932;2024-02-21T03:02:03;1.97;;;1.97;;
11037;SDS011;5572;49.540;11.932;2024-02-21T03:04:29;1.80;;;1.80;;
11037;SDS011;5572;49.540;11.932;2024-02-21T03:06:56;1.53;;;1.53;;
11037;SDS011;5572;49.540;11.932;2024-02-21T03:09:23;1.70;;;1.70;;
11037;SDS011;5572;49.540;11.932;2024-02-21T03:11:49;1.60;;;1.60;;
11037;SDS011;5572;49.540;11.932;2024-02-21T03:14:16;1.67;;;1.67;;
11037;SDS011;5572;49.540;11.932;2024-02-21T03:16:44;1.60;;;1.60;;
11037;SDS011;5572;49.540;11.932;2024-02-21T03:19:10;1.93;;;1.93;;
11037;SDS011;5572;49.540;11.932;2024-02-21T03:21:37;1.60;;;1.60;;
11037;SDS011;5572;49.540;11.932;2024-02-21T03:24:03;1.50;;;1.50;;
11037;SDS011;5572;49.540;11.932;2024-02-21T03:26:31;1.70;;;1.70;;
11037;SDS011;5572;49.540;11.932;2024-02-21T03:28:57;1.80;;;1.80;;
11037;SDS011;5572;49.540;11.932;2024-02-21T03:31:24;1.83;;;1.83;;
11037;SDS011;5572;49.540;11.932;2024-02-21T03:33:52;1.80;;;1.80;;
11037;SDS011;5572;49.540;11.932;2024-02-21T03:36:19;1.70;;;1.70;;
11037;SDS011;5572;49.540;11.932;2024-02-21T03:38:45;2.10;;;2.10;;
11037;SDS011;5572;49.540;11.932;2024-02-21T03:41:12;2.27;;;2.20;;
11037;SDS011;5572;49.540;11.932;2024-02-21T03:43:39;1.73;;;1.73;;
11037;SDS011;5572;49.540;11.932;2024-02-21T03:46:06;1.70;;;1.70;;
11037;SDS011;5572;49.540;11.932;2024-02-21T03:48:33;1.90;;;1.90;;
11037;SDS011;5572;49.540;11.932;2024-02-21T03:51:01;2.10;;;2.10;;
11037;SDS011;5572;49.540;11.932;2024-02-21T03:53:27;2.33;;;2.23;;
11037;SDS011;5572;49.540;11.932;2024-02-21T03:55:54;2.00;;;2.00;;
11037;SDS011;5572;49.540;11.932;2024-02-21T03:58:21;1.60;;;1.60;;
11037;SDS011;5572;49.540;11.932;2024-02-21T04:00:48;1.40;;;1.40;;
11037;SDS011;5572;49.540;11.932;2024-02-21T04:03:14;1.50;;;1.50;;
11037;SDS011;5572;49.540;11.932;2024-02-21T04:05:41;6.93;;;6.50;;
11037;SDS011;5572;49.540;11.932;2024-02-21T08:34:24;2.90;;;2.80;;
11037;SDS011;5572;49.540;11.932;2024-02-21T08:36:59;3.27;;;3.17;;
11037;SDS011;5572;49.540;11.932;2024-02-21T08:58:49;2.37;;;2.37;;
11037;SDS011;5572;49.540;11.932;2024-02-21T09:01:28;2.30;;;2.30;;
11037;SDS011;5572;49.540;11.932;2024-02-21T09:04:07;2.30;;;2.30;;
11037;SDS011;5572;49.540;11.932;2024-02-21T09:06:52;2.90;;;2.80;;
11037;SDS011;5572;49.540;11.932;2024-02-21T09:09:29;2.50;;;2.50;;
11037;SDS011;5572;49.540;11.932;2024-02-21T09:12:15;2.60;;;2.60;;
11037;SDS011;5572;49.540;11.932;2024-02-21T09:15:19;2.60;;;2.60;;
11037;SDS011;5572;49.540;11.932;2024-02-21T09:21:17;2.73;;;2.73;;
11037;SDS011;5572;49.540;11.932;2024-02-21T09:24:05;3.00;;;2.90;;
11037;SDS011;5572;49.540;11.932;2024-02-21T09:26:52;2.83;;;2.83;;
11037;SDS011;5572;49.540;11.932;2024-02-21T09:30:02;2.93;;;2.73;;
11037;SDS011;5572;49.540;11.932;2024-02-21T09:33:28;3.40;;;3.30;;
11037;SDS011;5572;49.540;11.932;2024-02-21T09:36:19;2.60;;;2.60;;
11037;SDS011;5572;49.540;11.932;2024-02-21T09:53:03;3.43;;;3.23;;
11037;SDS011;5572;49.540;11.932;2024-02-21T10:09:28;4.00;;;3.90;;
11037;SDS011;5572;49.540;11.932;2024-02-21T10:11:55;3.57;;;3.47;;
11037;SDS011;5572;49.540;11.932;2024-02-21T10:14:22;2.93;;;2.90;;
11037;SDS011;5572;49.540;11.932;2024-02-21T10:16:56;3.30;;;3.20;;
11037;SDS011;5572;49.540;11.932;2024-02-21T10:19:23;3.17;;;3.07;;
11037;SDS011;5572;49.540;11.932;2024-02-21T10:22:00;3.30;;;3.20;;
11037;SDS011;5572;49.540;11.932;2024-02-21T10:24:30;3.57;;;3.47;;
11037;SDS011;5572;49.540;11.932;2024-02-21T10:26:58;3.90;;;3.80;;
11037;SDS011;5572;49.540;11.932;2024-02-21T10:29:26;3.93;;;3.83;;
11037;SDS011;5572;49.540;11.932;2024-02-21T10:32:02;3.60;;;3.50;;
11037;SDS011;5572;49.540;11.932;2024-02-21T10:34:30;3.80;;;3.70;;
11037;SDS011;5572;49.540;11.932;2024-02-21T10:36:59;3.50;;;3.40;;
11037;SDS011;5572;49.540;11.932;2024-02-21T10:39:26;3.60;;;3.50;;
11037;SDS011;5572;49.540;11.932;2024-02-21T10:41:54;3.70;;;3.60;;
11037;SDS011;5572;49.540;11.932;2024-02-21T10:44:25;3.67;;;3.57;;
11037;SDS011;5572;49.540;11.932;2024-02-21T10:46:54;4.07;;;3.97;;
11037;SDS011;5572;49.540;11.932;2024-02-21T10:49:22;3.60;;;3.50;;
11037;SDS011;5572;49.540;11.932;2024-02-21T10:51:52;3.50;;;3.40;;
11037;SDS011;5572;49.540;11.932;2024-02-21T10:54:28;3.80;;;3.70;;
11037;SDS011;5572;49.540;11.932;2024-02-21T10:57:06;3.90;;;3.80;;
11037;SDS011;5572;49.540;11.932;2024-02-21T10:59:33;3.70;;;3.60;;
11037;SDS011;5572;49.540;11.932;2024-02-21T11:02:03;3.70;;;3.60;;
11037;SDS011;5572;49.540;11.932;2024-02-21T11:04:29;3.83;;;3.73;;
11037;SDS011;5572;49.540;11.932;2024-02-21T11:06:57;3.67;;;3.57;;
11037;SDS011;5572;49.540;11.932;2024-02-21T11:09:29;3.70;;;3.60;;
11037;SDS011;5572;49.540;11.932;2024-02-21T11:11:57;4.20;;;4.10;;
11037;SDS011;5572;49.540;11.932;2024-02-21T11:14:26;4.07;;;3.97;;
11037;SDS011;5572;49.540;11.932;2024-02-21T11:16:53;3.87;;;3.77;;
11037;SDS011;5572;49.540;11.932;2024-02-21T11:19:21;3.73;;;3.63;;
11037;SDS011;5572;49.540;11.932;2024-02-21T11:21:49;3.83;;;3.73;;
11037;SDS011;5572;49.540;11.932;2024-02-21T11:24:25;4.10;;;4.00;;
11037;SDS011;5572;49.540;11.932;2024-02-21T11:26:53;3.90;;;3.80;;
11037;SDS011;5572;49.540;11.932;2024-02-21T11:29:22;4.57;;;4.47;;
11037;SDS011;5572;49.540;11.932;2024-02-21T11:31:51;4.03;;;3.93;;
11037;SDS011;5572;49.540;11.932;2024-02-21T11:34:18;4.00;;;3.90;;
11037;SDS011;5572;49.540;11.932;2024-02-21T11:36:48;4.40;;;4.20;;
11037;SDS011;5572;49.540;11.932;2024-02-21T11:39:22;4.23;;;4.13;;
11037;SDS011;5572;49.540;11.932;2024-02-21T11:42:02;4.57;;;4.30;;
11037;SDS011;5572;49.540;11.932;2024-02-21T11:44:30;3.87;;;3.77;;
11037;SDS011;5572;49.540;11.932;2024-02-21T11:46:59;3.80;;;3.70;;
11037;SDS011;5572;49.540;11.932;2024-02-21T11:49:25;4.17;;;4.07;;
11037;SDS011;5572;49.540;11.932;2024-02-21T11:52:01;4.10;;;4.00;;
11037;SDS011;5572;49.540;11.932;2024-02-21T11:54:29;4.20;;;4.10;;
11037;SDS011;5572;49.540;11.932;2024-02-21T11:56:55;4.37;;;4.17;;
11037;SDS011;5572;49.540;11.932;2024-02-21T11:59:22;4.10;;;4.00;;
11037;SDS011;5572;49.540;11.932;2024-02-21T12:01:49;4.87;;;4.67;;
11037;SDS011;5572;49.540;11.932;2024-02-21T12:04:18;4.60;;;4.40;;
11037;SDS011;5572;49.540;11.932;2024-02-21T12:06:45;4.40;;;4.20;;
11037;SDS011;5572;49.540;11.932;2024-02-21T12:09:13;4.00;;;3.90;;
11037;SDS011;5572;49.540;11.932;2024-02-21T12:11:40;3.90;;;3.80;;
11037;SDS011;5572;49.540;11.932;2024-02-21T12:14:06;4.30;;;4.20;;
11037;SDS011;5572;49.540;11.932;2024-02-21T12:16:34;4.37;;;4.27;;
11037;SDS011;5572;49.540;11.932;2024-02-21T12:19:02;4.00;;;3.90;;
11037;SDS011;5572;49.540;11.932;2024-02-21T12:21:31;4.10;;;4.00;;
11037;SDS011;5572;49.540;11.932;2024-02-21T12:24:10;4.03;;;3.93;;
11037;SDS011;5572;49.540;11.932;2024-02-21T12:26:37;4.30;;;4.20;;
11037;SDS011;5572;49.540;11.932;2024-02-21T12:29:04;4.20;;;4.10;;
11037;SDS011;5572;49.540;11.932;2024-02-21T12:31:31;4.50;;;4.40;;
11037;SDS011;5572;49.540;11.932;2024-02-21T12:33:57;5.53;;;5.23;;
11037;SDS011;5572;49.540;11.932;2024-02-21T12:36:24;5.10;;;4.90;;
11037;SDS011;5572;49.540;11.932;2024-02-21T12:38:52;4.73;;;4.63;;
11037;SDS011;5572;49.540;11.932;2024-02-21T12:41:19;4.23;;;4.13;;
11037;SDS011;5572;49.540;11.932;2024-02-21T12:43:46;4.70;;;4.50;;
11037;SDS011;5572;49.540;11.932;2024-02-21T12:46:13;3.97;;;3.87;;
11037;SDS011;5572;49.540;11.932;2024-02-21T12:48:40;4.10;;;4.00;;
11037;SDS011;5572;49.540;11.932;2024-02-21T12:51:06;4.00;;;3.90;;
11037;SDS011;5572;49.540;11.932;2024-02-21T12:53:33;4.00;;;3.90;;
11037;SDS011;5572;49.540;11.932;2024-02-21T12:56:01;4.30;;;4.20;;
11037;SDS011;5572;49.540;11.932;2024-02-21T12:58:30;4.20;;;4.10;;
11037;SDS011;5572;49.540;11.932;2024-02-21T13:00:56;4.47;;;4.37;;
11037;SDS011;5572;49.540;11.932;2024-02-21T13:03:23;4.80;;;4.60;;
11037;SDS011;5572;49.540;11.932;2024-02-21T13:05:50;4.47;;;4.37;;
11037;SDS011;5572;49.540;11.932;2024-02-21T13:08:17;4.23;;;4.13;;
11037;SDS011;5572;49.540;11.932;2024-02-21T13:10:46;5.27;;;5.07;;
11037;SDS011;5572;49.540;11.932;2024-02-21T13:13:15;4.43;;;4.33;;
11037;SDS011;5572;49.540;11.932;2024-02-21T13:15:42;4.60;;;4.50;;
11037;SDS011;5572;49.540;11.932;2024-02-21T13:18:08;4.20;;;4.10;;
11037;SDS011;5572;49.540;11.932;2024-02-21T13:20:35;5.83;;;5.63;;
11037;SDS011;5572;49.540;11.932;2024-02-21T13:23:02;4.00;;;3.90;;
11037;SDS011;5572;49.540;11.932;2024-02-21T13:25:29;3.87;;;3.77;;
11037;SDS011;5572;49.540;11.932;2024-02-21T13:27:55;4.00;;;3.90;;
11037;SDS011;5572;49.540;11.932;2024-02-21T13:30:23;4.37;;;4.20;;
11037;SDS011;5572;49.540;11.932;2024-02-21T13:32:50;4.57;;;4.47;;
11037;SDS011;5572;49.540;11.932;2024-02-21T13:35:17;4.23;;;4.13;;
11037;SDS011;5572;49.540;11.932;2024-02-21T13:37:44;5.00;;;4.80;;
11037;SDS011;5572;49.540;11.932;2024-02-21T13:40:10;4.33;;;4.23;;
11037;SDS011;5572;49.540;11.932;2024-02-21T13:42:39;4.33;;;4.23;;
11037;SDS011;5572;49.540;11.932;2024-02-21T13:45:06;4.40;;;4.30;;
11037;SDS011;5572;49.540;11.932;2024-02-21T13:47:35;4.47;;;4.37;;
11037;SDS011;5572;49.540;11.932;2024-02-21T13:50:04;4.53;;;4.43;;
11037;SDS011;5572;49.540;11.932;2024-02-21T13:52:34;5.60;;;5.40;;
11037;SDS011;5572;49.540;11.932;2024-02-21T13:55:00;4.63;;;4.53;;
11037;SDS011;5572;49.540;11.932;2024-02-21T13:57:28;4.70;;;4.60;;
11037;SDS011;5572;49.540;11.932;2024-02-21T13:59:55;4.87;;;4.70;;
11037;SDS011;5572;49.540;11.932;2024-02-21T14:02:21;4.80;;;4.70;;
11037;SDS011;5572;49.540;11.932;2024-02-21T14:04:49;4.73;;;4.63;;
11037;SDS011;5572;49.540;11.932;2024-02-21T14:07:16;4.90;;;4.80;;
11037;SDS011;5572;49.540;11.932;2024-02-21T14:09:43;4.83;;;4.73;;
11037;SDS011;5572;49.540;11.932;2024-02-21T14:12:09;4.50;;;4.40;;
11037;SDS011;5572;49.540;11.932;2024-02-21T14:14:36;5.47;;;5.27;;
11037;SDS011;5572;49.540;11.932;2024-02-21T14:17:03;6.00;;;5.60;;
11037;SDS011;5572;49.540;11.932;2024-02-21T14:19:30;5.00;;;4.80;;
11037;SDS011;5572;49.540;11.932;2024-02-21T14:21:58;4.93;;;4.83;;
11037;SDS011;5572;49.540;11.932;2024-02-21T14:24:25;4.80;;;4.70;;
11037;SDS011;5572;49.540;11.932;2024-02-21T14:26:52;5.37;;;5.17;;
11037;SDS011;5572;49.540;11.932;2024-02-21T14:29:19;5.00;;;4.90;;
11037;SDS011;5572;49.540;11.932;2024-02-21T14:31:46;5.23;;;5.07;;
11037;SDS011;5572;49.540;11.932;2024-02-21T14:34:13;5.30;;;5.10;;
11037;SDS011;5572;49.540;11.932;2024-02-21T14:36:39;5.37;;;5.17;;
11037;SDS011;5572;49.540;11.932;2024-02-21T14:39:08;5.77;;;5.57;;
11037;SDS011;5572;49.540;11.932;2024-02-21T14:41:35;5.00;;;4.90;;
11037;SDS011;5572;49.540;11.932;2024-02-21T14:44:01;7.17;;;6.77;;
11037;SDS011;5572;49.540;11.932;2024-02-21T14:46:28;6.07;;;5.50;;
11037;SDS011;5572;49.540;11.932;2024-02-21T14:48:55;5.40;;;5.20;;
11037;SDS011;5572;49.540;11.932;2024-02-21T14:51:22;5.60;;;5.40;;
11037;SDS011;5572;49.540;11.932;2024-02-21T14:53:48;5.37;;;5.17;;
11037;SDS011;5572;49.540;11.932;2024-02-21T14:56:16;5.60;;;5.40;;
11037;SDS011;5572;49.540;11.932;2024-02-21T14:58:43;5.30;;;5.10;;
11037;SDS011;5572;49.540;11.932;2024-02-21T15:01:12;4.90;;;4.80;;
11037;SDS011;5572;49.540;11.932;2024-02-21T15:03:39;5.10;;;5.00;;
11037;SDS011;5572;49.540;11.932;2024-02-21T15:06:05;5.53;;;5.33;;
11037;SDS011;5572;49.540;11.932;2024-02-21T15:08:32;4.90;;;4.80;;
11037;SDS011;5572;49.540;11.932;2024-02-21T15:10:59;4.73;;;4.63;;
11037;SDS011;5572;49.540;11.932;2024-02-21T15:13:27;6.60;;;4.80;;
11037;SDS011;5572;49.540;11.932;2024-02-21T15:15:55;4.70;;;4.60;;
11037;SDS011;5572;49.540;11.932;2024-02-21T15:18:22;4.73;;;4.63;;
11037;SDS011;5572;49.540;11.932;2024-02-21T15:20:49;5.27;;;5.10;;
11037;SDS011;5572;49.540;11.932;2024-02-21T15:23:15;5.50;;;5.30;;
11037;SDS011;5572;49.540;11.932;2024-02-21T15:25:42;4.50;;;4.40;;
11037;SDS011;5572;49.540;11.932;2024-02-21T15:28:09;5.00;;;4.80;;
11037;SDS011;5572;49.540;11.932;2024-02-21T15:30:39;4.57;;;4.47;;
11037;SDS011;5572;49.540;11.932;2024-02-21T15:33:06;4.33;;;4.23;;
11037;SDS011;5572;49.540;11.932;2024-02-21T15:35:32;4.20;;;4.10;;
11037;SDS011;5572;49.540;11.932;2024-02-21T15:37:58;3.93;;;3.83;;
11037;SDS011;5572;49.540;11.932;2024-02-21T15:40:25;4.33;;;4.23;;
11037;SDS011;5572;49.540;11.932;2024-02-21T15:42:52;4.07;;;3.97;;
11037;SDS011;5572;49.540;11.932;2024-02-21T15:45:18;4.00;;;3.90;;
11037;SDS011;5572;49.540;11.932;2024-02-21T15:47:46;4.00;;;3.90;;
11037;SDS011;5572;49.540;11.932;2024-02-21T15:50:13;4.07;;;3.97;;
11037;SDS011;5572;49.540;11.932;2024-02-21T15:52:40;4.20;;;4.10;;
11037;SDS011;5572;49.540;11.932;2024-02-21T15:55:06;4.23;;;4.13;;
11037;SDS011;5572;49.540;11.932;2024-02-21T15:57:37;3.83;;;3.73;;
11037;SDS011;5572;49.540;11.932;2024-02-21T16:00:04;4.13;;;4.03;;
11037;SDS011;5572;49.540;11.932;2024-02-21T16:02:31;4.50;;;4.40;;
11037;SDS011;5572;49.540;11.932;2024-02-21T16:04:59;4.43;;;4.33;;
11037;SDS011;5572;49.540;11.932;2024-02-21T16:07:26;4.20;;;4.10;;
11037;SDS011;5572;49.540;11.932;2024-02-21T22:12:54;4.00;;;3.90;;
11037;SDS011;5572;49.540;11.932;2024-02-21T22:15:21;3.47;;;3.37;;
11037;SDS011;5572;49.540;11.932;2024-02-21T22:17:48;3.93;;;3.83;;
11037;SDS011;5572;49.540;11.932;2024-02-21T22:20:14;3.63;;;3.53;;
11037;SDS011;5572;49.540;11.932;2024-02-21T22:22:46;4.37;;;4.17;;
11037;SDS011;5572;49.540;11.932;2024-02-21T22:25:13;3.60;;;3.50;;
11037;SDS011;5572;49.540;11.932;2024-02-21T22:27:40;3.73;;;3.63;;
11037;SDS011;5572;49.540;11.932;2024-02-21T22:30:09;3.93;;;3.83;;
11037;SDS011;5572;49.540;11.932;2024-02-21T22:32:36;3.97;;;3.87;;
11037;SDS011;5572;49.540;11.932;2024-02-21T22:35:03;3.90;;;3.80;;
11037;SDS011;5572;49.540;11.932;2024-02-21T22:37:30;4.20;;;4.10;;
11037;SDS011;5572;49.540;11.932;2024-02-21T22:39:57;4.20;;;4.10;;
11037;SDS011;5572;49.540;11.932;2024-02-21T22:42:24;4.30;;;4.20;;
11037;SDS011;5572;49.540;11.932;2024-02-21T22:44:50;4.40;;;4.30;;
11037;SDS011;5572;49.540;11.932;2024-02-21T22:47:18;4.30;;;4.20;;
11037;SDS011;5572;49.540;11.932;2024-02-21T22:49:45;4.50;;;4.40;;
11037;SDS011;5572;49.540;11.932;2024-02-21T22:52:11;4.27;;;4.10;;
11037;SDS011;5572;49.540;11.932;2024-02-21T22:54:38;3.90;;;3.80;;
11037;SDS011;5572;49.540;11.932;2024-02-21T22:57:05;4.00;;;3.90;;
11037;SDS011;5572;49.540;11.932;2024-02-21T22:59:32;4.10;;;4.00;;
11037;SDS011;5572;49.540;11.932;2024-02-21T23:01:58;3.63;;;3.53;;
11037;SDS011;5572;49.540;11.932;2024-02-21T23:04:26;3.80;;;3.70;;
11037;SDS011;5572;49.540;11.932;2024-02-21T23:06:53;3.30;;;3.20;;
11037;SDS011;5572;49.540;11.932;2024-02-21T23:09:20;3.40;;;3.30;;
11037;SDS011;5572;49.540;11.932;2024-02-21T23:11:46;3.50;;;3.40;;
11037;SDS011;5572;49.540;11.932;2024-02-21T23:14:13;3.50;;;3.40;;
11037;SDS011;5572;49.540;11.932;2024-02-21T23:16:40;3.30;;;3.20;;
11037;SDS011;5572;49.540;11.932;2024-02-21T23:19:06;3.53;;;3.43;;
11037;SDS011;5572;49.540;11.932;2024-02-21T23:21:35;3.47;;;3.37;;
11037;SDS011;5572;49.540;11.932;2024-02-21T23:24:01;3.43;;;3.33;;
11037;SDS011;5572;49.540;11.932;2024-02-21T23:26:28;3.70;;;3.60;;
11037;SDS011;5572;49.540;11.932;2024-02-21T23:28:56;3.70;;;3.60;;
11037;SDS011;5572;49.540;11.932;2024-02-21T23:31:23;3.80;;;3.70;;
11037;SDS011;5572;49.540;11.932;2024-02-21T23:33:50;3.83;;;3.73;;
11037;SDS011;5572;49.540;11.932;2024-02-21T23:36:16;4.03;;;3.93;;
11037;SDS011;5572;49.540;11.932;2024-02-21T23:38:44;4.70;;;4.40;;
11037;SDS011;5572;49.540;11.932;2024-02-21T23:41:13;3.80;;;3.70;;
11037;SDS011;5572;49.540;11.932;2024-02-21T23:43:41;3.87;;;3.77;;
11037;SDS011;5572;49.540;11.932;2024-02-21T23:46:08;3.80;;;3.70;;
11037;SDS011;5572;49.540;11.932;2024-02-21T23:48:35;4.00;;;3.90;;
11037;SDS011;5572;49.540;11.932;2024-02-21T23:51:02;3.93;;;3.83;;
11037;SDS011;5572;49.540;11.932;2024-02-21T23:53:29;4.40;;;4.30;;
11037;SDS011;5572;49.540;11.932;2024-02-21T23:55:57;3.80;;;3.70;;
11037;SDS011;5572;49.540;11.932;2024-02-21T23:58:24;3.70;;;3.60;;
